createdAt,value
2019-04-06T00:05:17.202Z,26.57
2019-04-06T00:07:45.862Z,25.77
2019-04-06T00:10:55.281Z,22.10
2019-04-06T00:13:24.728Z,22.10
2019-04-06T00:15:53.521Z,25.63
2019-04-06T00:18:22.113Z,22.77
2019-04-06T00:20:50.674Z,21.43
2019-04-06T00:23:19.368Z,25.07
2019-04-06T00:25:48.059Z,28.20
2019-04-06T00:28:35.963Z,28.40
2019-04-06T00:31:23.726Z,27.70
2019-04-06T00:33:52.532Z,25.80
2019-04-06T00:36:40.337Z,22.43
2019-04-06T00:39:09.282Z,27.37
2019-04-06T00:41:37.940Z,21.63
2019-04-06T00:44:06.622Z,22.17
2019-04-06T00:46:35.316Z,19.90
2019-04-06T00:49:04.065Z,24.97
2019-04-06T00:51:32.752Z,28.17
2019-04-06T00:54:01.323Z,26.30
2019-04-06T00:56:29.935Z,21.13
2019-04-06T00:58:58.671Z,28.93
2019-04-06T01:01:27.290Z,30.10
2019-04-06T01:03:55.935Z,26.37
2019-04-06T01:06:43.680Z,25.50
2019-04-06T01:09:12.348Z,23.37
2019-04-06T01:11:41.058Z,28.90
2019-04-06T01:14:28.860Z,27.90
2019-04-06T01:16:57.550Z,25.97
2019-04-06T01:19:45.468Z,30.07
2019-04-06T01:22:14.163Z,24.47
2019-04-06T01:25:02.136Z,30.83
2019-04-06T01:27:49.871Z,25.30
2019-04-06T01:30:58.393Z,25.23
2019-04-06T01:33:27.063Z,24.50
2019-04-06T01:35:55.703Z,25.83
2019-04-06T01:38:43.531Z,31.10
2019-04-06T01:41:12.081Z,28.73
2019-04-06T01:43:40.769Z,23.83
2019-04-06T01:46:09.421Z,32.77
2019-04-06T01:48:38.042Z,26.77
2019-04-06T01:51:26.034Z,30.67
2019-04-06T01:53:54.652Z,33.17
2019-04-06T01:56:23.171Z,29.40
2019-04-06T01:58:51.872Z,34.00
2019-04-06T02:01:39.565Z,31.90
2019-04-06T02:04:08.264Z,32.07
2019-04-06T02:06:36.974Z,30.57
2019-04-06T02:09:45.456Z,28.43
2019-04-06T02:12:14.110Z,34.03
2019-04-06T02:14:42.791Z,31.87
2019-04-06T02:17:11.434Z,30.67
2019-04-06T02:19:40.124Z,27.83
2019-04-06T02:22:08.770Z,29.13
2019-04-06T02:24:37.353Z,29.83
2019-04-06T02:27:06.133Z,30.90
2019-04-06T02:29:34.754Z,27.87
2019-04-06T02:32:22.506Z,27.97
2019-04-06T02:37:59.525Z,28.67
2019-04-06T02:46:12.165Z,29.77
2019-04-06T02:48:40.775Z,35.30
2019-04-06T02:51:09.418Z,30.90
2019-04-06T02:53:38.113Z,34.07
2019-04-06T02:56:06.715Z,40.87
2019-04-06T03:01:22.974Z,30.80
2019-04-06T03:04:10.749Z,40.47
2019-04-06T03:06:39.442Z,31.20
2019-04-06T03:09:11.355Z,28.00
2019-04-06T03:11:38.651Z,25.93
2019-04-06T03:14:07.315Z,31.53
2019-04-06T03:16:35.915Z,26.53
2019-04-06T03:19:04.605Z,30.60
2019-04-06T03:21:33.210Z,31.23
2019-04-06T03:24:21.021Z,30.10
2019-04-06T03:27:00.644Z,28.73
2019-04-06T03:29:20.031Z,28.93
2019-04-06T03:31:48.719Z,27.13
2019-04-06T03:34:21.260Z,32.70
2019-04-06T03:36:47.778Z,34.40
2019-04-06T03:39:16.426Z,33.40
2019-04-06T03:41:45.041Z,29.97
2019-04-06T03:44:13.615Z,31.67
2019-04-06T03:46:54.212Z,34.83
2019-04-06T03:49:41.964Z,28.37
2019-04-06T03:52:10.537Z,29.53
2019-04-06T03:54:39.153Z,39.70
2019-04-06T03:57:14.539Z,27.97
2019-04-06T03:59:38.222Z,33.57
2019-04-06T04:02:26.136Z,32.23
2019-04-06T04:04:55.038Z,31.63
2019-04-06T04:07:23.718Z,31.57
2019-04-06T04:09:52.310Z,29.03
2019-04-06T04:12:40.389Z,36.47
2019-04-06T04:15:09.076Z,36.83
2019-04-06T04:17:37.703Z,30.80
2019-04-06T04:20:46.207Z,34.03
2019-04-06T04:23:14.751Z,36.30
2019-04-06T04:26:02.592Z,30.43
2019-04-06T04:28:50.471Z,33.17
2019-04-06T04:31:19.432Z,31.47
2019-04-06T04:33:49.463Z,29.87
2019-04-06T04:36:18.107Z,33.50
2019-04-06T04:38:46.815Z,30.47
2019-04-06T04:41:15.503Z,32.53
2019-04-06T04:43:44.413Z,30.83
2019-04-06T04:46:14.523Z,28.97
2019-04-06T04:48:43.272Z,32.57
2019-04-06T04:51:12.084Z,32.70
2019-04-06T04:53:40.716Z,25.27
2019-04-06T04:56:09.336Z,32.10
2019-04-06T04:58:37.999Z,30.50
2019-04-06T05:01:06.691Z,34.70
2019-04-06T05:03:35.415Z,36.40
2019-04-06T05:08:58.614Z,31.87
2019-04-06T05:11:27.112Z,31.97
2019-04-06T05:14:34.247Z,41.63
2019-04-06T05:17:03.062Z,32.43
2019-04-06T05:19:31.615Z,37.63
2019-04-06T05:22:00.279Z,27.17
2019-04-06T05:24:28.885Z,29.47
2019-04-06T05:26:57.460Z,35.53
2019-04-06T05:29:26.065Z,29.90
2019-04-06T05:31:54.636Z,34.37
2019-04-06T05:34:23.489Z,33.37
2019-04-06T05:36:52.131Z,30.40
2019-04-06T05:39:20.806Z,32.00
2019-04-06T05:41:50.789Z,31.77
2019-04-06T05:44:19.861Z,32.77
2019-04-06T05:46:48.631Z,29.57
2019-04-06T05:49:17.305Z,29.93
2019-04-06T05:51:45.964Z,31.17
2019-04-06T05:54:14.660Z,30.13
2019-04-06T05:56:43.302Z,33.07
2019-04-06T05:59:11.920Z,30.30
2019-04-06T06:01:59.782Z,33.50
2019-04-06T06:04:28.479Z,30.77
2019-04-06T06:06:57.115Z,30.70
2019-04-06T06:09:25.707Z,34.20
2019-04-06T06:11:55.780Z,35.20
2019-04-06T06:14:24.754Z,32.43
2019-04-06T06:17:14.332Z,30.40
2019-04-06T06:19:43.018Z,27.30
2019-04-06T06:22:11.717Z,33.47
2019-04-06T06:24:40.354Z,33.57
2019-04-06T06:27:28.325Z,24.80
2019-04-06T06:29:58.566Z,34.47
2019-04-06T06:32:27.138Z,33.73
2019-04-06T06:34:56.046Z,29.47
2019-04-06T06:37:26.219Z,32.80
2019-04-06T06:39:54.799Z,35.83
2019-04-06T06:42:23.454Z,29.23
2019-04-06T06:44:52.172Z,28.20
2019-04-06T06:47:20.875Z,30.50
2019-04-06T06:49:49.574Z,37.93
2019-04-06T06:52:18.234Z,26.30
2019-04-06T06:54:46.843Z,35.20
2019-04-06T06:57:15.486Z,32.60
2019-04-06T06:59:44.292Z,26.73
2019-04-06T07:02:12.877Z,29.60
2019-04-06T07:04:41.557Z,26.50
2019-04-06T07:07:10.201Z,26.27
2019-04-06T07:09:38.879Z,25.77
2019-04-06T07:12:07.558Z,27.57
2019-04-06T07:14:36.231Z,25.27
2019-04-06T07:17:04.874Z,30.23
2019-04-06T07:19:33.538Z,26.27
2019-04-06T07:22:02.158Z,28.13
2019-04-06T07:24:30.732Z,24.57
2019-04-06T07:26:59.434Z,25.23
2019-04-06T07:29:28.081Z,25.27
2019-04-06T07:32:15.962Z,31.50
2019-04-06T07:34:44.966Z,22.37
2019-04-06T07:37:14.929Z,25.63
2019-04-06T07:39:43.544Z,25.77
2019-04-06T07:42:12.183Z,30.10
2019-04-06T07:44:40.798Z,22.40
2019-04-06T07:47:09.364Z,28.53
2019-04-06T07:49:38.051Z,33.13
2019-04-06T07:52:06.761Z,29.03
2019-04-06T07:54:35.469Z,30.60
2019-04-06T07:57:04.132Z,27.33
2019-04-06T07:59:52.205Z,27.30
2019-04-06T08:02:22.364Z,31.13
2019-04-06T08:05:10.161Z,29.37
2019-04-06T08:07:38.959Z,25.63
2019-04-06T08:10:47.463Z,28.60
2019-04-06T08:13:16.265Z,25.93
2019-04-06T08:15:44.884Z,26.70
2019-04-06T08:18:13.579Z,29.00
2019-04-06T08:20:42.267Z,31.10
2019-04-06T08:23:30.088Z,32.83
2019-04-06T08:25:58.767Z,25.80
2019-04-06T08:28:27.350Z,29.13
2019-04-06T08:30:56.007Z,27.73
2019-04-06T08:33:24.616Z,27.07
2019-04-06T08:35:53.257Z,31.50
2019-04-06T08:38:21.941Z,26.50
2019-04-06T08:40:50.570Z,33.20
2019-04-06T08:43:38.498Z,27.77
2019-04-06T08:46:07.334Z,29.37
2019-04-06T08:48:35.948Z,28.33
2019-04-06T08:51:04.806Z,31.17
2019-04-06T08:53:33.395Z,35.10
2019-04-06T08:58:36.379Z,32.60
2019-04-06T09:01:05.023Z,28.87
2019-04-06T09:03:52.909Z,28.80
2019-04-06T09:06:22.056Z,28.50
2019-04-06T09:08:52.362Z,30.17
2019-04-06T09:11:21.243Z,29.47
2019-04-06T09:13:51.428Z,22.77
2019-04-06T09:18:54.004Z,25.60
2019-04-06T09:21:22.967Z,22.37
2019-04-06T09:23:53.105Z,28.00
2019-04-06T09:26:21.734Z,26.83
2019-04-06T09:28:50.382Z,26.43
2019-04-06T09:31:33.849Z,32.73
2019-04-06T09:33:49.459Z,30.57
2019-04-06T09:36:18.049Z,31.47
2019-04-06T09:38:46.730Z,26.33
2019-04-06T09:41:15.426Z,27.27
2019-04-06T09:43:44.044Z,26.33
2019-04-06T09:49:07.423Z,22.10
2019-04-06T09:51:55.108Z,19.23
2019-04-06T09:57:22.621Z,18.27
2019-04-06T10:05:38.653Z,20.73
2019-04-06T10:08:26.785Z,24.37
2019-04-06T10:11:14.656Z,22.47
2019-04-06T10:14:02.458Z,22.17
2019-04-06T10:16:50.422Z,21.83
2019-04-06T10:19:38.175Z,25.57
2019-04-06T10:22:26.005Z,23.77
2019-04-06T10:25:13.769Z,25.87
2019-04-06T10:28:01.699Z,21.93
2019-04-06T10:30:49.553Z,19.33
2019-04-06T10:33:37.361Z,21.60
2019-04-06T10:36:25.172Z,23.73
2019-04-06T10:39:12.885Z,22.40
2019-04-06T10:42:00.698Z,19.40
2019-04-06T10:44:48.390Z,19.33
2019-04-06T10:47:36.157Z,19.30
2019-04-06T10:50:44.592Z,20.10
2019-04-06T10:53:32.347Z,16.23
2019-04-06T10:59:09.307Z,12.00
2019-04-06T11:04:32.329Z,12.00
2019-04-06T11:07:20.099Z,15.70
2019-04-06T11:12:43.547Z,11.07
2019-04-06T11:15:31.635Z,13.17
2019-04-06T11:18:19.328Z,11.20
2019-04-06T11:21:26.451Z,13.73
2019-04-06T11:24:14.278Z,10.80
2019-04-06T11:27:02.360Z,11.77
2019-04-06T11:29:50.146Z,13.20
2019-04-06T11:43:23.239Z,12.20
2019-04-06T11:49:00.166Z,11.17
2019-04-06T11:51:47.985Z,12.60
2019-04-06T11:54:35.753Z,9.43
2019-04-06T11:57:23.887Z,10.63
2019-04-06T12:00:23.606Z,12.03
2019-04-06T12:03:01.193Z,9.37
2019-04-06T12:05:49.106Z,9.70
2019-04-06T12:13:51.848Z,11.77
2019-04-06T12:16:39.674Z,9.33
2019-04-06T12:27:32.158Z,8.07
2019-04-06T12:33:09.205Z,9.40
2019-04-06T12:35:57.204Z,9.20
2019-04-06T12:41:20.583Z,8.93
2019-04-06T12:44:08.594Z,10.63
2019-04-06T12:46:56.492Z,8.23
2019-04-06T12:52:19.639Z,10.10
2019-04-06T12:55:07.410Z,8.60
2019-04-06T12:57:55.333Z,9.63
2019-04-06T13:00:50.794Z,6.93
2019-04-06T13:03:32.646Z,8.83
2019-04-06T13:06:20.817Z,9.20
2019-04-06T13:09:08.625Z,11.83
2019-04-06T13:11:56.379Z,11.23
2019-04-06T13:17:33.353Z,11.03
2019-04-06T13:20:21.351Z,10.57
2019-04-06T13:23:09.455Z,9.10
2019-04-06T13:25:57.463Z,9.67
2019-04-06T13:28:45.223Z,9.47
2019-04-06T13:31:52.197Z,10.00
2019-04-06T13:34:40.629Z,9.13
2019-04-06T13:37:28.438Z,9.77
2019-04-06T13:40:16.136Z,10.43
2019-04-06T13:43:04.177Z,14.07
2019-04-06T13:45:51.919Z,9.47
2019-04-06T13:51:49.651Z,8.33
2019-04-06T13:54:37.628Z,9.63
2019-04-06T13:57:25.698Z,7.60
2019-04-06T14:00:13.408Z,9.03
2019-04-06T14:05:40.743Z,11.20
2019-04-06T14:08:28.777Z,9.90
2019-04-06T14:11:16.652Z,10.10
2019-04-06T14:14:04.488Z,7.47
2019-04-06T14:16:52.257Z,10.77
2019-04-06T14:19:40.334Z,8.47
2019-04-06T14:22:27.970Z,7.90
2019-04-06T14:25:15.934Z,8.87
2019-04-06T14:28:03.733Z,7.83
2019-04-06T14:33:40.796Z,8.93
2019-04-06T14:39:03.748Z,13.20
2019-04-06T14:41:51.848Z,9.63
2019-04-06T14:44:39.644Z,9.73
2019-04-06T14:50:16.661Z,10.23
2019-04-06T14:53:04.743Z,8.87
2019-04-06T14:58:28.472Z,8.13
2019-04-06T15:01:16.276Z,7.67
2019-04-06T15:04:04.623Z,9.87
2019-04-06T15:06:52.471Z,7.60
2019-04-06T15:09:40.106Z,10.20
2019-04-06T15:12:27.862Z,8.33
2019-04-06T15:17:55.482Z,6.90
2019-04-06T15:23:32.486Z,9.67
2019-04-06T15:26:40.877Z,7.92
2019-04-06T15:29:28.972Z,7.70
2019-04-06T15:32:16.729Z,7.47
2019-04-06T15:35:04.505Z,8.90
2019-04-06T15:37:52.623Z,8.00
2019-04-06T15:40:59.651Z,14.97
2019-04-06T15:43:47.402Z,7.77
2019-04-06T15:46:35.652Z,6.63
2019-04-06T15:52:10.599Z,6.33
2019-04-06T15:57:42.073Z,7.53
2019-04-06T16:00:50.688Z,7.63
2019-04-06T16:03:38.789Z,7.37
2019-04-06T16:06:26.601Z,10.53
2019-04-06T16:09:14.415Z,9.07
2019-04-06T16:12:21.491Z,8.03
2019-04-06T16:18:04.561Z,6.33
2019-04-06T16:20:52.277Z,6.93
2019-04-06T16:23:40.202Z,7.77
2019-04-06T16:26:27.984Z,8.40
2019-04-06T16:29:15.784Z,7.33
2019-04-06T16:37:18.613Z,8.57
2019-04-06T16:40:06.869Z,11.23
2019-04-06T16:42:55.174Z,8.80
2019-04-06T16:45:43.337Z,11.30
2019-04-06T16:48:50.311Z,12.50
2019-04-06T16:51:38.501Z,9.47
2019-04-06T16:54:26.291Z,7.93
2019-04-06T16:57:33.273Z,8.23
2019-04-06T17:00:40.362Z,8.90
2019-04-06T17:03:28.143Z,9.20
2019-04-06T17:11:50.404Z,7.33
2019-04-06T17:14:38.178Z,8.17
2019-04-06T17:17:25.995Z,9.57
2019-04-06T17:20:13.806Z,7.40
2019-04-06T17:25:50.760Z,8.47
2019-04-06T17:28:38.825Z,7.63
2019-04-06T17:31:26.771Z,8.70
2019-04-06T17:34:14.483Z,10.20
2019-04-06T17:37:02.242Z,7.10
2019-04-06T17:40:09.629Z,9.97
2019-04-06T17:42:57.516Z,10.13
2019-04-06T17:45:45.318Z,10.37
2019-04-06T17:51:08.316Z,8.30
2019-04-06T17:53:56.137Z,7.53
2019-04-06T17:56:44.371Z,10.63
2019-04-06T17:59:32.422Z,12.90
2019-04-06T18:04:59.778Z,7.73
2019-04-06T18:07:47.742Z,14.43
2019-04-06T18:10:35.689Z,10.20
2019-04-06T18:16:12.726Z,10.47
2019-04-06T18:18:41.280Z,13.40
2019-04-06T18:21:09.899Z,17.83
2019-04-06T18:23:38.512Z,12.57
2019-04-06T18:26:07.085Z,13.00
2019-04-06T18:28:36.146Z,16.27
2019-04-06T18:31:25.311Z,13.57
2019-04-06T18:33:54.773Z,15.13
2019-04-06T18:39:19.750Z,19.87
2019-04-06T18:41:48.779Z,20.07
2019-04-06T18:44:58.759Z,16.83
2019-04-06T18:47:28.805Z,17.83
2019-04-06T18:49:57.979Z,17.57
2019-04-06T18:52:28.238Z,14.90
2019-04-06T18:54:58.296Z,15.80
2019-04-06T18:57:26.898Z,18.60
2019-04-06T18:59:55.943Z,18.70
2019-04-06T19:02:25.958Z,15.20
2019-04-06T19:04:54.613Z,19.13
2019-04-06T19:07:23.188Z,18.57
2019-04-06T19:09:51.806Z,18.43
2019-04-06T19:12:20.494Z,18.37
2019-04-06T19:14:49.108Z,22.13
2019-04-06T19:17:17.724Z,19.27
2019-04-06T19:19:46.409Z,23.07
2019-04-06T19:22:15.106Z,24.70
2019-04-06T19:24:44.405Z,24.13
2019-04-06T19:27:14.073Z,24.07
2019-04-06T19:29:42.770Z,22.93
2019-04-06T19:32:11.482Z,21.97
2019-04-06T19:34:40.565Z,20.43
2019-04-06T19:37:10.475Z,22.17
2019-04-06T19:39:39.063Z,19.70
2019-04-06T19:42:08.122Z,18.57
2019-04-06T19:44:38.055Z,19.47
2019-04-06T19:47:06.748Z,18.43
2019-04-06T19:49:35.347Z,12.80
2019-04-06T19:52:04.039Z,15.90
2019-04-06T19:54:32.717Z,18.90
2019-04-06T19:57:01.415Z,16.57
2019-04-06T19:59:30.051Z,14.03
2019-04-06T20:01:58.757Z,16.67
2019-04-06T20:04:34.288Z,14.10
2019-04-06T20:07:02.949Z,18.23
2019-04-06T20:09:31.986Z,19.73
2019-04-06T20:12:06.053Z,24.00
2019-04-06T20:14:32.725Z,15.33
2019-04-06T20:17:03.035Z,12.93
2019-04-06T20:19:33.302Z,17.53
2019-04-06T20:22:21.392Z,14.80
2019-04-06T20:24:50.044Z,13.87
2019-04-06T20:27:18.723Z,12.70
2019-04-06T20:29:47.418Z,16.27
2019-04-06T20:32:16.111Z,13.17
2019-04-06T20:34:44.801Z,13.40
2019-04-06T20:37:13.877Z,11.70
2019-04-06T20:39:43.853Z,14.43
2019-04-06T20:42:12.546Z,16.00
2019-04-06T20:44:41.057Z,12.97
2019-04-06T20:50:49.778Z,13.33
2019-04-06T20:53:38.077Z,10.37
2019-04-06T20:56:07.959Z,10.60
2019-04-06T20:58:36.537Z,13.47
2019-04-06T21:01:05.228Z,10.27
2019-04-06T21:03:33.910Z,12.33
2019-04-06T21:06:02.918Z,11.93
2019-04-06T21:08:33.261Z,12.03
2019-04-06T21:11:03.621Z,11.87
2019-04-06T21:13:33.812Z,9.70
2019-04-06T21:16:02.446Z,10.70
2019-04-06T21:18:31.144Z,13.30
2019-04-06T21:20:59.873Z,13.80
2019-04-06T21:23:47.692Z,11.27
2019-04-06T21:26:16.424Z,11.53
2019-04-06T21:28:45.533Z,11.53
2019-04-06T21:31:15.420Z,12.27
2019-04-06T21:34:10.411Z,9.37
2019-04-06T21:36:33.728Z,10.80
2019-04-06T21:39:02.337Z,11.83
2019-04-06T21:41:31.013Z,11.63
2019-04-06T21:44:00.042Z,12.23
2019-04-06T21:46:29.958Z,11.63
2019-04-06T21:48:58.592Z,10.00
2019-04-06T21:51:27.562Z,11.70
2019-04-06T21:53:57.675Z,10.37
2019-04-06T21:56:26.348Z,11.77
2019-04-06T21:58:55.006Z,12.27
2019-04-06T22:02:03.453Z,10.33
2019-04-06T22:04:32.693Z,14.53
2019-04-06T22:07:03.066Z,13.33
2019-04-06T22:09:33.565Z,11.20
2019-04-06T22:12:03.354Z,10.53
2019-04-06T22:14:31.996Z,10.47
2019-04-06T22:17:00.671Z,14.53
2019-04-06T22:19:29.474Z,11.33
2019-04-06T22:21:58.670Z,13.23
2019-04-06T22:24:28.548Z,11.83
2019-04-06T22:26:57.393Z,12.07
2019-04-06T22:29:26.059Z,11.33
2019-04-06T22:35:09.082Z,14.13
2019-04-06T22:37:37.597Z,14.70
2019-04-06T22:40:46.440Z,12.33
2019-04-06T22:43:16.732Z,13.27
2019-04-06T22:45:47.065Z,10.97
2019-04-06T22:48:15.719Z,10.13
2019-04-06T22:50:44.328Z,10.23
2019-04-06T22:53:13.224Z,9.17
2019-04-06T22:55:43.372Z,10.57
2019-04-06T22:58:31.262Z,10.60
2019-04-06T23:01:19.758Z,11.23
2019-04-06T23:04:07.632Z,7.93
2019-04-06T23:07:14.618Z,9.20
2019-04-06T23:09:43.904Z,9.43
2019-04-06T23:12:13.729Z,10.07
2019-04-06T23:14:42.248Z,9.37
2019-04-06T23:17:30.624Z,10.93
2019-04-06T23:20:00.563Z,7.50
2019-04-06T23:22:29.528Z,10.23
2019-04-06T23:24:59.498Z,8.77
2019-04-06T23:27:28.068Z,8.93
2019-04-06T23:29:56.680Z,7.47
2019-04-06T23:32:25.179Z,8.93
2019-04-06T23:35:00.515Z,12.07
2019-04-06T23:37:24.337Z,12.03
2019-04-06T23:39:52.882Z,12.43
2019-04-06T23:42:21.712Z,12.13
2019-04-06T23:44:51.864Z,10.20
2019-04-06T23:47:20.504Z,12.27
2019-04-06T23:49:49.582Z,8.17
2019-04-06T23:52:19.547Z,12.07
2019-04-06T23:54:48.695Z,12.37
2019-04-06T23:57:18.697Z,11.07
2019-04-06T23:59:48.948Z,14.17
